sensor_id;sensor_type;location;lat;lon;timestamp;pressure;altitude;pressure_sealevel;temperature;humidity
29941;BME280;16801;53.562;10.038;2023-02-15T00:01:33;102991.78;;;8.15;88.46
29941;BME280;16801;53.562;10.038;2023-02-15T00:04:54;102997.41;;;7.89;89.04
29941;BME280;16801;53.562;10.038;2023-02-15T00:08:15;102991.25;;;8.07;89.00
29941;BME280;16801;53.562;10.038;2023-02-15T00:11:37;102992.13;;;8.28;87.49
29941;BME280;16801;53.562;10.038;2023-02-15T00:15:02;102988.44;;;7.90;89.21
29941;BME280;16801;53.562;10.038;2023-02-15T00:18:23;102989.16;;;8.34;87.61
29941;BME280;16801;53.562;10.038;2023-02-15T00:21:45;102980.09;;;8.36;85.88
29941;BME280;16801;53.562;10.038;2023-02-15T00:25:06;102971.97;;;8.75;85.34
29941;BME280;16801;53.562;10.038;2023-02-15T00:28:29;102976.34;;;8.59;84.94
29941;BME280;16801;53.562;10.038;2023-02-15T00:31:52;102969.34;;;8.36;86.53
29941;BME280;16801;53.562;10.038;2023-02-15T00:35:13;102962.31;;;8.34;86.39
29941;BME280;16801;53.562;10.038;2023-02-15T00:38:34;102976.47;;;7.97;87.58
29941;BME280;16801;53.562;10.038;2023-02-15T00:41:55;102968.75;;;7.89;87.26
29941;BME280;16801;53.562;10.038;2023-02-15T00:45:18;102961.22;;;8.18;87.58
29941;BME280;16801;53.562;10.038;2023-02-15T00:48:40;102954.16;;;8.72;86.17
29941;BME280;16801;53.562;10.038;2023-02-15T00:52:01;102950.22;;;8.98;84.06
29941;BME280;16801;53.562;10.038;2023-02-15T00:55:22;102938.41;;;8.65;85.32
29941;BME280;16801;53.562;10.038;2023-02-15T00:58:43;102952.28;;;8.56;85.29
29941;BME280;16801;53.562;10.038;2023-02-15T01:02:05;102950.56;;;8.55;85.93
29941;BME280;16801;53.562;10.038;2023-02-15T01:05:26;102942.69;;;8.88;84.60
29941;BME280;16801;53.562;10.038;2023-02-15T01:08:49;102951.78;;;8.66;84.18
29941;BME280;16801;53.562;10.038;2023-02-15T01:12:10;102953.78;;;8.43;85.32
29941;BME280;16801;53.562;10.038;2023-02-15T01:15:33;102946.81;;;8.57;84.96
29941;BME280;16801;53.562;10.038;2023-02-15T01:18:56;102942.44;;;8.18;86.62
29941;BME280;16801;53.562;10.038;2023-02-15T01:22:17;102931.28;;;8.64;85.99
29941;BME280;16801;53.562;10.038;2023-02-15T01:25:38;102923.16;;;9.01;84.54
29941;BME280;16801;53.562;10.038;2023-02-15T01:28:58;102922.09;;;9.22;82.68
29941;BME280;16801;53.562;10.038;2023-02-15T01:32:19;102925.09;;;9.16;83.27
29941;BME280;16801;53.562;10.038;2023-02-15T01:35:42;102918.50;;;8.50;85.41
29941;BME280;16801;53.562;10.038;2023-02-15T01:39:03;102916.41;;;8.57;85.84
29941;BME280;16801;53.562;10.038;2023-02-15T01:42:24;102907.16;;;8.44;85.70
29941;BME280;16801;53.562;10.038;2023-02-15T01:45:47;102913.69;;;8.75;85.14
29941;BME280;16801;53.562;10.038;2023-02-15T01:49:11;102909.75;;;8.82;84.77
29941;BME280;16801;53.562;10.038;2023-02-15T01:52:35;102905.94;;;8.51;85.17
29941;BME280;16801;53.562;10.038;2023-02-15T01:56:00;102904.19;;;8.68;84.37
29941;BME280;16801;53.562;10.038;2023-02-15T01:59:23;102906.75;;;8.34;86.17
29941;BME280;16801;53.562;10.038;2023-02-15T02:02:47;102905.94;;;8.69;85.48
29941;BME280;16801;53.562;10.038;2023-02-15T02:06:10;102894.00;;;9.11;83.27
29941;BME280;16801;53.562;10.038;2023-02-15T02:09:35;102895.13;;;8.34;85.54
29941;BME280;16801;53.562;10.038;2023-02-15T02:12:59;102887.06;;;8.52;84.74
29941;BME280;16801;53.562;10.038;2023-02-15T02:16:24;102882.06;;;8.25;85.52
29941;BME280;16801;53.562;10.038;2023-02-15T02:24:03;102869.22;;;8.68;84.42
29941;BME280;16801;53.562;10.038;2023-02-15T02:27:37;102868.16;;;8.54;84.96
29941;BME280;16801;53.562;10.038;2023-02-15T02:31:22;102863.22;;;8.80;83.45
29941;BME280;16801;53.562;10.038;2023-02-15T02:34:56;102854.44;;;8.41;84.94
29941;BME280;16801;53.562;10.038;2023-02-15T02:38:28;102855.97;;;8.82;84.12
29941;BME280;16801;53.562;10.038;2023-02-15T02:42:00;102852.16;;;8.69;84.78
29941;BME280;16801;53.562;10.038;2023-02-15T02:45:26;102845.75;;;7.97;86.59
29941;BME280;16801;53.562;10.038;2023-02-15T02:48:49;102848.31;;;8.00;87.78
29941;BME280;16801;53.562;10.038;2023-02-15T02:52:35;102847.56;;;7.97;86.16
29941;BME280;16801;53.562;10.038;2023-02-15T02:55:59;102844.63;;;8.03;86.57
29941;BME280;16801;53.562;10.038;2023-02-15T02:59:26;102842.88;;;8.21;86.24
29941;BME280;16801;53.562;10.038;2023-02-15T03:02:53;102835.22;;;8.12;86.38
29941;BME280;16801;53.562;10.038;2023-02-15T03:06:21;102845.03;;;7.15;89.89
29941;BME280;16801;53.562;10.038;2023-02-15T03:09:46;102833.56;;;7.52;89.54
29941;BME280;16801;53.562;10.038;2023-02-15T03:13:09;102833.91;;;7.83;88.82
29941;BME280;16801;53.562;10.038;2023-02-15T03:16:30;102823.66;;;7.72;88.32
29941;BME280;16801;53.562;10.038;2023-02-15T03:19:53;102820.19;;;7.70;88.64
29941;BME280;16801;53.562;10.038;2023-02-15T03:23:19;102817.97;;;7.60;90.19
29941;BME280;16801;53.562;10.038;2023-02-15T03:26:46;102820.06;;;8.11;87.44
29941;BME280;16801;53.562;10.038;2023-02-15T03:30:09;102821.16;;;8.06;86.63
29941;BME280;16801;53.562;10.038;2023-02-15T03:33:31;102812.50;;;8.56;85.52
29941;BME280;16801;53.562;10.038;2023-02-15T03:36:58;102808.97;;;8.37;85.04
29941;BME280;16801;53.562;10.038;2023-02-15T03:40:26;102814.41;;;7.20;89.54
29941;BME280;16801;53.562;10.038;2023-02-15T03:44:11;102810.72;;;7.82;87.13
29941;BME280;16801;53.562;10.038;2023-02-15T03:47:38;102804.84;;;7.54;88.18
29941;BME280;16801;53.562;10.038;2023-02-15T03:51:04;102802.47;;;7.66;88.22
29941;BME280;16801;53.562;10.038;2023-02-15T03:54:44;102801.84;;;7.41;87.84
29941;BME280;16801;53.562;10.038;2023-02-15T03:58:06;102798.09;;;7.64;87.84
29941;BME280;16801;53.562;10.038;2023-02-15T04:01:55;102793.50;;;7.67;87.20
29941;BME280;16801;53.562;10.038;2023-02-15T04:05:18;102803.31;;;7.08;89.14
29941;BME280;16801;53.562;10.038;2023-02-15T04:08:39;102797.63;;;6.95;89.68
29941;BME280;16801;53.562;10.038;2023-02-15T04:12:17;102791.75;;;7.66;87.62
29941;BME280;16801;53.562;10.038;2023-02-15T04:15:38;102789.22;;;7.43;88.25
29941;BME280;16801;53.562;10.038;2023-02-15T04:19:18;102789.06;;;7.28;88.23
29941;BME280;16801;53.562;10.038;2023-02-15T04:22:56;102787.59;;;7.00;89.14
29941;BME280;16801;53.562;10.038;2023-02-15T04:26:35;102783.44;;;7.52;87.15
29941;BME280;16801;53.562;10.038;2023-02-15T04:29:56;102782.69;;;8.06;86.49
29941;BME280;16801;53.562;10.038;2023-02-15T04:33:17;102777.69;;;8.17;84.61
29941;BME280;16801;53.562;10.038;2023-02-15T04:36:39;102773.53;;;7.91;85.80
29941;BME280;16801;53.562;10.038;2023-02-15T04:40:01;102771.44;;;8.17;84.94
29941;BME280;16801;53.562;10.038;2023-02-15T04:43:22;102772.34;;;7.60;86.87
29941;BME280;16801;53.562;10.038;2023-02-15T04:46:43;102771.22;;;7.65;86.28
29941;BME280;16801;53.562;10.038;2023-02-15T04:50:05;102766.63;;;8.23;84.64
29941;BME280;16801;53.562;10.038;2023-02-15T04:53:27;102760.25;;;7.70;85.19
29941;BME280;16801;53.562;10.038;2023-02-15T04:56:48;102759.38;;;8.06;85.88
29941;BME280;16801;53.562;10.038;2023-02-15T05:00:09;102757.13;;;8.16;85.30
29941;BME280;16801;53.562;10.038;2023-02-15T05:03:30;102755.81;;;8.25;84.83
29941;BME280;16801;53.562;10.038;2023-02-15T05:06:51;102754.16;;;7.85;85.67
29941;BME280;16801;53.562;10.038;2023-02-15T05:10:13;102751.81;;;8.15;83.90
29941;BME280;16801;53.562;10.038;2023-02-15T05:13:34;102749.97;;;7.98;84.31
29941;BME280;16801;53.562;10.038;2023-02-15T05:16:55;102759.22;;;7.54;85.17
29941;BME280;16801;53.562;10.038;2023-02-15T05:20:18;102753.13;;;6.71;88.19
29941;BME280;16801;53.562;10.038;2023-02-15T05:23:39;102743.47;;;7.07;87.53
29941;BME280;16801;53.562;10.038;2023-02-15T05:27:01;102738.44;;;7.39;86.18
29941;BME280;16801;53.562;10.038;2023-02-15T05:30:39;102739.72;;;7.87;85.32
29941;BME280;16801;53.562;10.038;2023-02-15T05:34:00;102736.16;;;7.68;85.17
29941;BME280;16801;53.562;10.038;2023-02-15T05:37:21;102743.66;;;6.83;88.66
29941;BME280;16801;53.562;10.038;2023-02-15T05:40:42;102745.00;;;6.93;87.83
29941;BME280;16801;53.562;10.038;2023-02-15T05:44:04;102727.19;;;7.51;85.98
29941;BME280;16801;53.562;10.038;2023-02-15T05:47:25;102723.75;;;7.84;84.40
29941;BME280;16801;53.562;10.038;2023-02-15T05:50:56;102714.03;;;8.00;83.41
29941;BME280;16801;53.562;10.038;2023-02-15T05:54:17;102711.59;;;8.32;82.87
29941;BME280;16801;53.562;10.038;2023-02-15T05:57:38;102719.19;;;8.05;83.07
29941;BME280;16801;53.562;10.038;2023-02-15T06:01:07;102717.06;;;7.93;83.18
29941;BME280;16801;53.562;10.038;2023-02-15T06:04:28;102716.31;;;7.15;85.34
29941;BME280;16801;53.562;10.038;2023-02-15T06:07:49;102715.56;;;7.69;84.83
29941;BME280;16801;53.562;10.038;2023-02-15T06:11:10;102719.97;;;7.33;84.58
29941;BME280;16801;53.562;10.038;2023-02-15T06:14:31;102718.75;;;7.40;85.06
29941;BME280;16801;53.562;10.038;2023-02-15T06:17:53;102725.28;;;7.34;84.49
29941;BME280;16801;53.562;10.038;2023-02-15T06:21:14;102723.13;;;7.22;84.63
29941;BME280;16801;53.562;10.038;2023-02-15T06:24:35;102728.25;;;7.47;84.44
29941;BME280;16801;53.562;10.038;2023-02-15T06:27:56;102720.78;;;7.53;83.54
29941;BME280;16801;53.562;10.038;2023-02-15T06:31:16;102726.72;;;7.97;82.57
29941;BME280;16801;53.562;10.038;2023-02-15T06:34:39;102733.66;;;7.65;82.51
29941;BME280;16801;53.562;10.038;2023-02-15T06:37:59;102741.00;;;7.03;84.63
29941;BME280;16801;53.562;10.038;2023-02-15T06:41:20;102750.50;;;7.10;84.27
29941;BME280;16801;53.562;10.038;2023-02-15T06:44:41;102739.72;;;7.50;83.69
29941;BME280;16801;53.562;10.038;2023-02-15T06:48:02;102733.06;;;7.77;82.81
29941;BME280;16801;53.562;10.038;2023-02-15T06:51:27;102730.59;;;7.54;83.19
29941;BME280;16801;53.562;10.038;2023-02-15T06:54:48;102729.50;;;7.58;83.29
29941;BME280;16801;53.562;10.038;2023-02-15T06:58:09;102724.41;;;7.89;82.11
29941;BME280;16801;53.562;10.038;2023-02-15T07:01:30;102727.09;;;7.89;81.86
29941;BME280;16801;53.562;10.038;2023-02-15T07:04:51;102718.75;;;7.77;82.52
29941;BME280;16801;53.562;10.038;2023-02-15T07:08:13;102709.44;;;7.28;83.68
29941;BME280;16801;53.562;10.038;2023-02-15T07:11:34;102713.53;;;7.92;82.95
29941;BME280;16801;53.562;10.038;2023-02-15T07:15:14;102714.94;;;8.18;81.08
29941;BME280;16801;53.562;10.038;2023-02-15T07:18:35;102711.66;;;7.76;81.83
29941;BME280;16801;53.562;10.038;2023-02-15T07:21:56;102706.94;;;8.35;80.81
29941;BME280;16801;53.562;10.038;2023-02-15T07:25:18;102706.41;;;7.91;81.31
29941;BME280;16801;53.562;10.038;2023-02-15T07:28:39;102705.84;;;7.48;82.36
29941;BME280;16801;53.562;10.038;2023-02-15T07:32:00;102701.53;;;7.99;81.30
29941;BME280;16801;53.562;10.038;2023-02-15T07:35:21;102706.00;;;7.82;81.34
29941;BME280;16801;53.562;10.038;2023-02-15T07:38:42;102705.56;;;7.54;81.93
29941;BME280;16801;53.562;10.038;2023-02-15T07:42:05;102696.41;;;7.76;81.83
29941;BME280;16801;53.562;10.038;2023-02-15T07:45:26;102694.59;;;7.58;82.90
29941;BME280;16801;53.562;10.038;2023-02-15T07:48:47;102679.28;;;7.79;81.34
29941;BME280;16801;53.562;10.038;2023-02-15T07:52:08;102691.38;;;7.13;82.35
29941;BME280;16801;53.562;10.038;2023-02-15T07:55:29;102683.00;;;7.58;82.04
29941;BME280;16801;53.562;10.038;2023-02-15T07:58:52;102680.38;;;7.19;83.35
29941;BME280;16801;53.562;10.038;2023-02-15T08:02:15;102696.09;;;6.68;84.10
29941;BME280;16801;53.562;10.038;2023-02-15T08:05:36;102690.88;;;6.65;85.23
29941;BME280;16801;53.562;10.038;2023-02-15T08:08:57;102684.69;;;6.83;84.62
29941;BME280;16801;53.562;10.038;2023-02-15T08:12:18;102680.78;;;7.10;82.57
29941;BME280;16801;53.562;10.038;2023-02-15T08:15:48;102677.94;;;6.94;83.68
29941;BME280;16801;53.562;10.038;2023-02-15T08:19:10;102683.22;;;6.56;84.96
29941;BME280;16801;53.562;10.038;2023-02-15T08:22:31;102675.25;;;6.94;83.01
29941;BME280;16801;53.562;10.038;2023-02-15T08:25:52;102666.75;;;7.61;81.34
29941;BME280;16801;53.562;10.038;2023-02-15T08:29:13;102662.25;;;7.43;81.36
29941;BME280;16801;53.562;10.038;2023-02-15T08:32:36;102670.09;;;6.90;82.39
29941;BME280;16801;53.562;10.038;2023-02-15T08:36:02;102671.81;;;6.91;83.41
29941;BME280;16801;53.562;10.038;2023-02-15T08:39:23;102669.34;;;7.06;83.17
29941;BME280;16801;53.562;10.038;2023-02-15T08:42:44;102670.66;;;7.35;81.68
29941;BME280;16801;53.562;10.038;2023-02-15T08:46:06;102671.09;;;7.26;82.01
29941;BME280;16801;53.562;10.038;2023-02-15T08:49:29;102669.22;;;7.84;80.60
29941;BME280;16801;53.562;10.038;2023-02-15T08:52:50;102662.41;;;8.13;78.54
29941;BME280;16801;53.562;10.038;2023-02-15T08:56:11;102656.16;;;7.58;79.49
29941;BME280;16801;53.562;10.038;2023-02-15T08:59:32;102653.69;;;7.35;81.15
29941;BME280;16801;53.562;10.038;2023-02-15T09:02:53;102656.53;;;7.13;81.13
29941;BME280;16801;53.562;10.038;2023-02-15T09:06:16;102665.47;;;7.32;81.75
29941;BME280;16801;53.562;10.038;2023-02-15T09:09:37;102660.00;;;7.52;80.58
29941;BME280;16801;53.562;10.038;2023-02-15T09:12:58;102664.31;;;6.18;84.86
29941;BME280;16801;53.562;10.038;2023-02-15T09:16:19;102668.41;;;6.05;85.91
29941;BME280;16801;53.562;10.038;2023-02-15T09:19:40;102660.09;;;5.91;86.72
29941;BME280;16801;53.562;10.038;2023-02-15T09:23:03;102654.09;;;6.48;85.38
29941;BME280;16801;53.562;10.038;2023-02-15T09:26:25;102663.94;;;6.27;86.60
29941;BME280;16801;53.562;10.038;2023-02-15T09:29:46;102643.25;;;7.47;82.18
29941;BME280;16801;53.562;10.038;2023-02-15T09:33:07;102645.56;;;6.79;83.05
29941;BME280;16801;53.562;10.038;2023-02-15T09:36:31;102649.06;;;6.61;84.67
29941;BME280;16801;53.562;10.038;2023-02-15T09:39:54;102641.50;;;6.90;84.16
29941;BME280;16801;53.562;10.038;2023-02-15T09:43:25;102632.81;;;7.41;81.71
29941;BME280;16801;53.562;10.038;2023-02-15T09:47:01;102631.19;;;7.74;80.53
29941;BME280;16801;53.562;10.038;2023-02-15T09:50:30;102646.59;;;7.15;80.34
29941;BME280;16801;53.562;10.038;2023-02-15T09:54:04;102652.44;;;6.24;84.79
29941;BME280;16801;53.562;10.038;2023-02-15T09:57:37;102640.72;;;7.07;83.19
29941;BME280;16801;53.562;10.038;2023-02-15T10:01:04;102643.72;;;6.99;82.53
29941;BME280;16801;53.562;10.038;2023-02-15T10:04:41;102644.56;;;7.93;79.40
29941;BME280;16801;53.562;10.038;2023-02-15T10:12:01;102641.13;;;8.08;79.61
29941;BME280;16801;53.562;10.038;2023-02-15T10:15:41;102649.81;;;7.96;78.16
29941;BME280;16801;53.562;10.038;2023-02-15T10:19:16;102647.22;;;7.57;78.00
29941;BME280;16801;53.562;10.038;2023-02-15T10:22:52;102645.47;;;8.29;81.41
29941;BME280;16801;53.562;10.038;2023-02-15T10:26:21;102643.34;;;8.00;77.50
29941;BME280;16801;53.562;10.038;2023-02-15T10:29:51;102652.47;;;7.42;79.66
29941;BME280;16801;53.562;10.038;2023-02-15T10:33:31;102647.00;;;7.80;79.29
29941;BME280;16801;53.562;10.038;2023-02-15T10:37:13;102647.38;;;8.08;78.02
29941;BME280;16801;53.562;10.038;2023-02-15T10:40:48;102652.78;;;8.43;74.98
29941;BME280;16801;53.562;10.038;2023-02-15T10:44:25;102657.53;;;8.72;75.05
29941;BME280;16801;53.562;10.038;2023-02-15T10:48:21;102647.13;;;8.49;75.11
29941;BME280;16801;53.562;10.038;2023-02-15T10:51:53;102647.38;;;8.61;74.88
29941;BME280;16801;53.562;10.038;2023-02-15T10:55:19;102642.38;;;8.71;74.13
29941;BME280;16801;53.562;10.038;2023-02-15T10:58:53;102643.88;;;8.59;73.91
29941;BME280;16801;53.562;10.038;2023-02-15T11:02:23;102632.19;;;8.93;72.64
29941;BME280;16801;53.562;10.038;2023-02-15T11:06:00;102635.03;;;8.40;74.00
29941;BME280;16801;53.562;10.038;2023-02-15T11:09:31;102626.38;;;8.17;76.17
29941;BME280;16801;53.562;10.038;2023-02-15T11:12:55;102616.16;;;8.06;77.82
29941;BME280;16801;53.562;10.038;2023-02-15T11:16:21;102619.97;;;8.70;74.17
29941;BME280;16801;53.562;10.038;2023-02-15T11:19:50;102611.50;;;8.09;77.05
29941;BME280;16801;53.562;10.038;2023-02-15T11:23:15;102614.97;;;8.30;75.85
29941;BME280;16801;53.562;10.038;2023-02-15T11:26:43;102605.84;;;8.67;75.70
29941;BME280;16801;53.562;10.038;2023-02-15T11:30:09;102612.31;;;8.80;74.16
29941;BME280;16801;53.562;10.038;2023-02-15T11:33:34;102604.72;;;9.04;73.04
29941;BME280;16801;53.562;10.038;2023-02-15T11:37:01;102607.53;;;7.99;76.64
29941;BME280;16801;53.562;10.038;2023-02-15T11:40:27;102607.09;;;8.08;77.64
29941;BME280;16801;53.562;10.038;2023-02-15T11:43:54;102589.47;;;9.20;73.98
29941;BME280;16801;53.562;10.038;2023-02-15T11:47:17;102586.88;;;9.65;71.99
29941;BME280;16801;53.562;10.038;2023-02-15T11:50:38;102575.41;;;10.07;68.59
29941;BME280;16801;53.562;10.038;2023-02-15T11:54:02;102566.44;;;10.06;68.18
29941;BME280;16801;53.562;10.038;2023-02-15T11:57:31;102559.38;;;10.63;67.63
29941;BME280;16801;53.562;10.038;2023-02-15T12:01:01;102557.19;;;10.70;65.68
29941;BME280;16801;53.562;10.038;2023-02-15T12:04:25;102547.63;;;13.39;56.11
29941;BME280;16801;53.562;10.038;2023-02-15T12:07:52;102551.78;;;12.19;58.59
29941;BME280;16801;53.562;10.038;2023-02-15T12:11:17;102539.16;;;13.67;54.64
29941;BME280;16801;53.562;10.038;2023-02-15T12:14:47;102519.38;;;15.78;48.51
29941;BME280;16801;53.562;10.038;2023-02-15T12:18:18;102527.91;;;14.19;50.70
29941;BME280;16801;53.562;10.038;2023-02-15T12:21:41;102522.69;;;13.70;53.65
29941;BME280;16801;53.562;10.038;2023-02-15T12:25:11;102521.50;;;14.88;51.78
29941;BME280;16801;53.562;10.038;2023-02-15T12:28:42;102513.63;;;17.54;44.14
29941;BME280;16801;53.562;10.038;2023-02-15T12:32:05;102507.53;;;19.57;39.25
29941;BME280;16801;53.562;10.038;2023-02-15T12:35:34;102497.38;;;20.63;37.72
29941;BME280;16801;53.562;10.038;2023-02-15T12:39:04;102497.44;;;19.30;38.66
29941;BME280;16801;53.562;10.038;2023-02-15T12:42:27;102502.31;;;19.46;38.87
29941;BME280;16801;53.562;10.038;2023-02-15T12:45:48;102498.53;;;17.01;42.36
29941;BME280;16801;53.562;10.038;2023-02-15T12:49:17;102489.84;;;18.70;40.48
29941;BME280;16801;53.562;10.038;2023-02-15T12:52:39;102487.22;;;18.12;41.64
29941;BME280;16801;53.562;10.038;2023-02-15T12:56:02;102482.56;;;17.36;42.98
29941;BME280;16801;53.562;10.038;2023-02-15T12:59:24;102479.91;;;16.25;46.18
29941;BME280;16801;53.562;10.038;2023-02-15T13:02:47;102488.63;;;17.00;45.67
29941;BME280;16801;53.562;10.038;2023-02-15T13:06:09;102481.47;;;16.69;45.48
29941;BME280;16801;53.562;10.038;2023-02-15T13:09:37;102471.75;;;17.94;43.35
29941;BME280;16801;53.562;10.038;2023-02-15T13:12:59;102472.31;;;17.97;42.55
29941;BME280;16801;53.562;10.038;2023-02-15T13:16:29;102465.28;;;17.66;43.73
29941;BME280;16801;53.562;10.038;2023-02-15T13:19:52;102463.44;;;15.85;47.56
29941;BME280;16801;53.562;10.038;2023-02-15T13:23:24;102458.06;;;16.06;47.83
29941;BME280;16801;53.562;10.038;2023-02-15T13:26:49;102459.16;;;16.24;46.99
29941;BME280;16801;53.562;10.038;2023-02-15T13:30:20;102459.84;;;15.10;49.69
29941;BME280;16801;53.562;10.038;2023-02-15T13:33:44;102456.31;;;15.84;48.24
29941;BME280;16801;53.562;10.038;2023-02-15T13:37:13;102465.19;;;14.90;50.85
29941;BME280;16801;53.562;10.038;2023-02-15T13:40:41;102453.50;;;16.57;47.12
29941;BME280;16801;53.562;10.038;2023-02-15T13:44:12;102436.53;;;17.52;44.93
29941;BME280;16801;53.562;10.038;2023-02-15T13:47:45;102437.78;;;15.78;48.25
29941;BME280;16801;53.562;10.038;2023-02-15T13:51:13;102441.28;;;15.69;48.81
29941;BME280;16801;53.562;10.038;2023-02-15T13:54:48;102429.97;;;15.21;50.93
29941;BME280;16801;53.562;10.038;2023-02-15T13:58:36;102441.78;;;14.45;55.68
29941;BME280;16801;53.562;10.038;2023-02-15T14:06:26;102421.38;;;15.05;51.82
29941;BME280;16801;53.562;10.038;2023-02-15T14:09:59;102422.75;;;15.32;50.93
29941;BME280;16801;53.562;10.038;2023-02-15T14:13:42;102426.63;;;15.61;49.56
29941;BME280;16801;53.562;10.038;2023-02-15T14:17:14;102415.75;;;16.83;47.91
29941;BME280;16801;53.562;10.038;2023-02-15T14:20:47;102418.00;;;16.68;48.38
29941;BME280;16801;53.562;10.038;2023-02-15T14:24:21;102413.09;;;17.21;46.94
29941;BME280;16801;53.562;10.038;2023-02-15T14:27:54;102408.38;;;17.23;45.47
29941;BME280;16801;53.562;10.038;2023-02-15T14:31:19;102409.81;;;17.46;46.48
29941;BME280;16801;53.562;10.038;2023-02-15T14:34:48;102400.59;;;18.61;43.54
29941;BME280;16801;53.562;10.038;2023-02-15T14:38:13;102407.00;;;18.32;43.35
29941;BME280;16801;53.562;10.038;2023-02-15T14:41:43;102407.34;;;16.96;46.30
29941;BME280;16801;53.562;10.038;2023-02-15T14:45:17;102411.59;;;15.14;50.90
29941;BME280;16801;53.562;10.038;2023-02-15T14:48:43;102400.22;;;15.09;51.38
29941;BME280;16801;53.562;10.038;2023-02-15T14:52:08;102401.91;;;15.64;50.44
29941;BME280;16801;53.562;10.038;2023-02-15T14:55:34;102394.97;;;14.85;52.32
29941;BME280;16801;53.562;10.038;2023-02-15T14:58:58;102397.00;;;14.72;53.34
29941;BME280;16801;53.562;10.038;2023-02-15T15:02:21;102408.72;;;14.51;54.20
29941;BME280;16801;53.562;10.038;2023-02-15T15:05:50;102400.34;;;14.43;54.83
29941;BME280;16801;53.562;10.038;2023-02-15T15:09:19;102402.81;;;14.46;54.61
29941;BME280;16801;53.562;10.038;2023-02-15T15:12:42;102408.28;;;14.11;56.02
29941;BME280;16801;53.562;10.038;2023-02-15T15:16:28;102408.50;;;13.75;56.74
29941;BME280;16801;53.562;10.038;2023-02-15T15:19:59;102402.69;;;13.79;57.12
29941;BME280;16801;53.562;10.038;2023-02-15T15:23:40;102402.97;;;13.52;58.18
29941;BME280;16801;53.562;10.038;2023-02-15T15:30:57;102400.91;;;12.72;61.42
29941;BME280;16801;53.562;10.038;2023-02-15T15:34:35;102409.16;;;12.71;61.39
29941;BME280;16801;53.562;10.038;2023-02-15T15:38:15;102405.44;;;12.23;62.84
29941;BME280;16801;53.562;10.038;2023-02-15T15:41:48;102401.97;;;12.34;63.06
29941;BME280;16801;53.562;10.038;2023-02-15T15:45:35;102395.28;;;12.14;63.04
29941;BME280;16801;53.562;10.038;2023-02-15T15:49:06;102395.19;;;12.28;63.60
29941;BME280;16801;53.562;10.038;2023-02-15T15:52:30;102386.66;;;12.09;64.60
29941;BME280;16801;53.562;10.038;2023-02-15T15:55:59;102388.59;;;11.03;67.63
29941;BME280;16801;53.562;10.038;2023-02-15T15:59:26;102389.84;;;11.24;67.22
29941;BME280;16801;53.562;10.038;2023-02-15T16:02:52;102383.78;;;11.21;67.35
29941;BME280;16801;53.562;10.038;2023-02-15T16:06:26;102367.88;;;11.56;66.21
29941;BME280;16801;53.562;10.038;2023-02-15T16:09:54;102365.53;;;11.51;66.47
29941;BME280;16801;53.562;10.038;2023-02-15T16:13:14;102367.78;;;11.57;66.56
29941;BME280;16801;53.562;10.038;2023-02-15T16:16:35;102367.47;;;11.22;67.03
29941;BME280;16801;53.562;10.038;2023-02-15T16:20:00;102370.84;;;11.26;67.79
29941;BME280;16801;53.562;10.038;2023-02-15T16:24:03;102369.44;;;11.33;67.67
29941;BME280;16801;53.562;10.038;2023-02-15T16:27:34;102369.56;;;11.32;66.73
29941;BME280;16801;53.562;10.038;2023-02-15T16:31:04;102360.53;;;10.79;69.04
29941;BME280;16801;53.562;10.038;2023-02-15T16:34:26;102358.00;;;10.50;69.92
29941;BME280;16801;53.562;10.038;2023-02-15T16:37:51;102366.69;;;10.81;83.68
29941;BME280;16801;53.562;10.038;2023-02-15T16:41:15;102364.16;;;10.92;76.25
29941;BME280;16801;53.562;10.038;2023-02-15T16:44:37;102368.34;;;10.15;75.38
29941;BME280;16801;53.562;10.038;2023-02-15T16:48:00;102349.47;;;10.29;74.19
29941;BME280;16801;53.562;10.038;2023-02-15T16:51:27;102351.84;;;9.91;75.00
29941;BME280;16801;53.562;10.038;2023-02-15T16:54:53;102343.69;;;9.93;74.63
29941;BME280;16801;53.562;10.038;2023-02-15T16:58:17;102342.44;;;9.84;76.14
29941;BME280;16801;53.562;10.038;2023-02-15T17:01:43;102328.56;;;9.62;76.84
29941;BME280;16801;53.562;10.038;2023-02-15T17:05:16;102325.50;;;9.82;75.67
29941;BME280;16801;53.562;10.038;2023-02-15T17:08:43;102331.13;;;9.49;77.46
29941;BME280;16801;53.562;10.038;2023-02-15T17:12:04;102329.16;;;9.53;77.61
29941;BME280;16801;53.562;10.038;2023-02-15T17:15:31;102317.66;;;9.49;77.60
29941;BME280;16801;53.562;10.038;2023-02-15T17:18:52;102319.22;;;9.53;77.75
29941;BME280;16801;53.562;10.038;2023-02-15T17:22:20;102331.13;;;8.76;80.36
29941;BME280;16801;53.562;10.038;2023-02-15T17:25:42;102339.56;;;9.29;79.55
29941;BME280;16801;53.562;10.038;2023-02-15T17:29:21;102329.97;;;9.39;78.66
29941;BME280;16801;53.562;10.038;2023-02-15T17:32:53;102327.00;;;9.44;77.96
29941;BME280;16801;53.562;10.038;2023-02-15T17:36:17;102331.22;;;9.48;78.13
29941;BME280;16801;53.562;10.038;2023-02-15T17:39:41;102323.09;;;9.63;77.52
29941;BME280;16801;53.562;10.038;2023-02-15T17:43:02;102319.44;;;9.79;76.70
29941;BME280;16801;53.562;10.038;2023-02-15T17:46:24;102328.44;;;9.06;79.97
29941;BME280;16801;53.562;10.038;2023-02-15T17:49:47;102326.53;;;9.51;78.24
29941;BME280;16801;53.562;10.038;2023-02-15T17:53:08;102341.25;;;9.16;79.13
29941;BME280;16801;53.562;10.038;2023-02-15T17:56:29;102349.31;;;9.60;77.65
29941;BME280;16801;53.562;10.038;2023-02-15T17:59:50;102354.97;;;9.55;77.35
29941;BME280;16801;53.562;10.038;2023-02-15T18:03:39;102356.03;;;9.09;78.97
29941;BME280;16801;53.562;10.038;2023-02-15T18:07:19;102364.16;;;9.23;79.18
29941;BME280;16801;53.562;10.038;2023-02-15T18:10:59;102362.56;;;9.05;78.00